Time;durP1;ratioP1;P1;durP2;ratioP2;P2;SDS_P1;SDS_P2;PMS_P1;PMS_P2;Temp;Humidity;BMP_temperature;BMP_pressure;BME280_temperature;BME280_humidity;BME280_pressure;Samples;Min_cycle;Max_cycle;Signal;HPM_P1;HPM_P2
2023/05/23 00:02:12;;;;;;;10.00;6.90;;;;;;;13.01;62.41;97646.04;107249;1277;25950;-85
2023/05/23 00:04:41;;;;;;;9.20;6.60;;;;;;;12.98;62.56;97643.73;107839;1277;23925;-87
2023/05/23 00:07:09;;;;;;;13.50;6.50;;;;;;;12.94;62.47;97637.39;106812;1277;22650;-88
2023/05/23 00:09:41;;;;;;;9.70;6.40;;;;;;;12.95;62.78;97634.81;107087;1277;23204;-88
2023/05/23 00:12:09;;;;;;;9.20;6.70;;;;;;;12.97;62.78;97629.85;106963;1267;22743;-91
2023/05/23 00:14:39;;;;;;;7.40;6.50;;;;;;;12.97;63.40;97623.73;106920;1277;22645;-85
2023/05/23 00:17:09;;;;;;;13.60;6.40;;;;;;;12.96;63.47;97620.09;106793;1277;22529;-86
2023/05/23 00:19:37;;;;;;;8.90;6.80;;;;;;;12.94;63.55;97620.63;106893;1277;23148;-86
2023/05/23 00:22:05;;;;;;;10.80;7.00;;;;;;;12.93;63.36;97619.73;106989;1277;22548;-87
2023/05/23 00:24:33;;;;;;;8.80;6.80;;;;;;;12.93;63.15;97619.10;106971;1277;22724;-86
2023/05/23 00:27:01;;;;;;;7.70;6.60;;;;;;;12.93;63.38;97619.41;107013;1277;23928;-87
2023/05/23 00:29:29;;;;;;;7.90;6.30;;;;;;;12.93;63.64;97616.48;106977;1277;22668;-87
2023/05/23 00:31:57;;;;;;;9.50;6.50;;;;;;;12.94;63.51;97618.07;107046;1260;22630;-88
2023/05/23 00:34:25;;;;;;;9.20;5.90;;;;;;;12.96;63.18;97616.61;106986;1277;22591;-87
2023/05/23 00:36:53;;;;;;;8.30;6.90;;;;;;;12.98;63.07;97612.06;106909;1277;24355;-86
2023/05/23 00:39:21;;;;;;;12.40;6.40;;;;;;;13.06;63.08;97617.86;107027;1277;22529;-88
2023/05/23 00:41:50;;;;;;;9.80;6.30;;;;;;;13.14;63.23;97617.14;106993;1277;24355;-87
2023/05/23 00:44:20;;;;;;;6.90;5.80;;;;;;;13.24;63.22;97621.66;106853;1277;22648;-86
2023/05/23 00:46:55;;;;;;;10.50;6.20;;;;;;;13.32;63.09;97617.70;107048;1277;25414;-86
2023/05/23 00:49:26;;;;;;;9.30;6.20;;;;;;;13.41;63.10;97616.30;106968;1277;25561;-84
2023/05/23 00:51:55;;;;;;;11.50;6.90;;;;;;;13.49;62.87;97612.86;106995;1277;25512;-86
2023/05/23 00:54:27;;;;;;;14.10;7.00;;;;;;;13.55;62.89;97611.89;106943;1277;22626;-86
2023/05/23 00:56:57;;;;;;;12.00;6.60;;;;;;;13.59;62.65;97607.73;106997;1277;22632;-86
2023/05/23 00:59:25;;;;;;;13.00;5.90;;;;;;;13.60;62.56;97607.64;106843;1277;22783;-85
2023/05/23 01:01:56;;;;;;;9.50;6.20;;;;;;;13.61;62.49;97609.35;106905;1277;24320;-86
2023/05/23 01:04:25;;;;;;;13.00;7.40;;;;;;;13.61;62.27;97604.16;107120;1277;22521;-86
2023/05/23 01:06:55;;;;;;;15.20;8.50;;;;;;;13.51;62.37;97604.64;107113;1277;24308;-86
2023/05/23 01:09:26;;;;;;;12.90;8.40;;;;;;;13.32;62.88;97601.45;107056;1277;24237;-86
2023/05/23 01:12:13;;;;;;;14.80;8.40;;;;;;;13.10;63.05;97601.37;107067;1277;22636;-85
2023/05/23 01:14:46;;;;;;;10.10;8.40;;;;;;;12.93;63.02;97601.69;107150;1277;22522;-85
2023/05/23 01:17:51;;;;;;;12.40;8.00;;;;;;;12.80;63.49;97602.09;106983;1278;24213;-86
2023/05/23 01:20:44;;;;;;;15.10;7.80;;;;;;;12.66;64.30;97601.34;106881;1277;24650;-84
2023/05/23 01:23:16;;;;;;;10.50;8.10;;;;;;;12.57;64.91;97600.17;106993;1277;22547;-85
2023/05/23 01:26:01;;;;;;;16.60;9.30;;;;;;;12.48;65.01;97597.12;106931;1277;22584;-85
2023/05/23 01:28:36;;;;;;;13.40;9.10;;;;;;;12.37;65.10;97596.94;106991;1277;22962;-87
2023/05/23 01:31:07;;;;;;;15.00;9.50;;;;;;;12.29;65.09;97593.90;106754;1277;22520;-88
2023/05/23 01:33:37;;;;;;;12.80;9.90;;;;;;;12.20;65.08;97592.73;106782;1277;24562;-86
2023/05/23 01:36:05;;;;;;;13.90;8.60;;;;;;;12.16;65.25;97586.81;106793;1277;22666;-86
2023/05/23 01:38:33;;;;;;;11.40;8.10;;;;;;;12.17;65.23;97586.98;106815;1277;22527;-89
2023/05/23 01:41:01;;;;;;;11.70;7.90;;;;;;;12.20;65.22;97585.83;106730;1277;22584;-88
2023/05/23 01:43:31;;;;;;;13.80;7.90;;;;;;;12.20;65.48;97586.23;106721;1277;23141;-82
2023/05/23 01:46:00;;;;;;;11.30;8.50;;;;;;;12.21;65.76;97582.98;106709;1277;25628;-86
2023/05/23 01:48:29;;;;;;;13.10;8.00;;;;;;;12.24;65.85;97581.03;106726;1267;24455;-89
2023/05/23 01:50:58;;;;;;;14.40;7.20;;;;;;;12.28;66.13;97583.35;107101;1277;22486;-84
2023/05/23 01:53:27;;;;;;;12.90;7.00;;;;;;;12.30;66.09;97586.39;107453;1277;22641;-86
2023/05/23 01:55:56;;;;;;;10.40;7.30;;;;;;;12.30;66.49;97583.10;107432;1277;22504;-85
2023/05/23 01:58:24;;;;;;;8.60;7.60;;;;;;;12.27;66.74;97581.92;107642;1278;23252;-85
2023/05/23 02:00:52;;;;;;;9.60;7.60;;;;;;;12.24;66.75;97583.16;107227;1277;22521;-85
2023/05/23 02:03:20;;;;;;;9.60;8.50;;;;;;;12.21;66.48;97588.69;107138;1277;26650;-86
2023/05/23 02:05:49;;;;;;;9.90;8.90;;;;;;;12.17;66.40;97588.94;106860;1277;22629;-86
2023/05/23 02:08:17;;;;;;;11.90;7.70;;;;;;;12.12;66.37;97586.42;106779;1277;24305;-87
2023/05/23 02:10:45;;;;;;;10.90;7.90;;;;;;;12.09;66.55;97586.27;106781;1277;22539;-87
2023/05/23 02:13:14;;;;;;;10.00;7.70;;;;;;;12.07;66.87;97585.56;106676;1259;25220;-86
2023/05/23 02:15:42;;;;;;;12.00;8.30;;;;;;;12.09;66.87;97584.16;106727;1277;24361;-88
2023/05/23 02:18:10;;;;;;;9.60;7.80;;;;;;;12.09;67.56;97581.31;106814;1277;22801;-87
2023/05/23 02:20:39;;;;;;;10.50;8.30;;;;;;;12.03;67.77;97584.91;106866;1277;22634;-86
2023/05/23 02:23:08;;;;;;;16.30;10.40;;;;;;;11.97;67.53;97586.63;106854;1277;22670;-83
2023/05/23 02:25:37;;;;;;;13.90;9.60;;;;;;;11.89;67.32;97588.73;106705;1277;22535;-82
2023/05/23 02:28:06;;;;;;;12.70;9.50;;;;;;;11.82;67.37;97587.98;106760;1277;22518;-82
2023/05/23 02:30:34;;;;;;;11.00;8.80;;;;;;;11.73;67.85;97589.96;106681;1277;25330;-82
2023/05/23 02:33:06;;;;;;;11.80;8.70;;;;;;;11.58;68.08;97592.48;106797;1277;22665;-82
2023/05/23 02:35:35;;;;;;;9.60;8.50;;;;;;;11.46;67.80;97596.16;106800;1277;24194;-82
2023/05/23 02:38:03;;;;;;;13.40;8.60;;;;;;;11.39;68.25;97594.13;106798;1278;24065;-82
2023/05/23 02:40:31;;;;;;;13.20;9.00;;;;;;;11.31;68.71;97598.83;106780;1277;23353;-82
2023/05/23 02:42:59;;;;;;;11.80;8.40;;;;;;;11.23;68.63;97600.35;106687;1277;25308;-82
2023/05/23 02:45:27;;;;;;;14.10;10.10;;;;;;;11.15;68.58;97602.02;106647;1277;22581;-81
2023/05/23 02:47:55;;;;;;;12.00;9.20;;;;;;;11.07;68.78;97604.64;106613;1277;24193;-81
2023/05/23 02:50:24;;;;;;;10.60;8.90;;;;;;;10.99;69.08;97601.02;106697;1277;22548;-80
2023/05/23 02:52:52;;;;;;;13.90;9.40;;;;;;;10.88;69.30;97598.91;106803;1277;22622;-81
2023/05/23 02:55:21;;;;;;;14.10;9.00;;;;;;;10.77;69.29;97598.98;106816;1277;22656;-81
2023/05/23 02:57:50;;;;;;;9.40;8.00;;;;;;;10.69;69.13;97595.27;106779;1277;22781;-81
2023/05/23 03:00:18;;;;;;;9.00;8.10;;;;;;;10.66;69.54;97593.80;106600;1277;22631;-81
2023/05/23 03:02:50;;;;;;;11.90;9.40;;;;;;;10.58;69.90;97599.22;106694;1276;22634;-81
2023/05/23 03:05:18;;;;;;;12.00;9.50;;;;;;;10.50;70.28;97597.20;106682;1277;22707;-80
2023/05/23 03:07:46;;;;;;;13.60;10.50;;;;;;;10.38;70.15;97595.73;106696;1278;22572;-81
2023/05/23 03:10:14;;;;;;;11.60;9.80;;;;;;;10.32;70.55;97593.19;106613;1277;22803;-80
2023/05/23 03:12:45;;;;;;;12.00;10.20;;;;;;;10.31;70.66;97590.13;106677;1277;22515;-81
2023/05/23 03:15:14;;;;;;;12.30;10.90;;;;;;;10.32;70.55;97591.94;106774;1276;22735;-82
2023/05/23 03:17:43;;;;;;;13.30;10.70;;;;;;;10.33;70.30;97589.93;106775;1277;22521;-81
2023/05/23 03:20:11;;;;;;;10.70;9.60;;;;;;;10.36;70.57;97588.79;106809;1277;22602;-81
2023/05/23 03:22:42;;;;;;;11.20;8.80;;;;;;;10.39;70.54;97587.41;106755;1277;22540;-82
2023/05/23 03:25:10;;;;;;;10.40;9.30;;;;;;;10.40;70.84;97584.81;106778;1277;22633;-81
2023/05/23 03:27:38;;;;;;;14.40;9.10;;;;;;;10.36;70.83;97585.17;106821;1278;22518;-80
2023/05/23 03:30:07;;;;;;;12.00;8.90;;;;;;;10.32;70.91;97585.20;106754;1277;25274;-82
2023/05/23 03:32:36;;;;;;;11.80;8.90;;;;;;;10.26;70.98;97585.70;106853;1277;25511;-81
2023/05/23 03:35:05;;;;;;;9.40;8.40;;;;;;;10.21;71.39;97584.56;107147;1278;24055;-82
2023/05/23 03:37:33;;;;;;;9.70;8.50;;;;;;;10.16;71.17;97583.51;106689;1277;22525;-81
2023/05/23 03:40:01;;;;;;;12.80;8.70;;;;;;;10.18;71.73;97588.95;106614;1277;22525;-81
2023/05/23 03:42:33;;;;;;;13.50;9.70;;;;;;;10.21;71.78;97584.28;106823;1278;25220;-85
2023/05/23 03:45:15;;;;;;;10.30;8.90;;;;;;;10.26;71.90;97589.48;106769;1277;24213;-82
2023/05/23 03:47:44;;;;;;;17.10;9.10;;;;;;;10.22;72.35;97585.09;106506;1277;25635;-83
2023/05/23 03:50:12;;;;;;;13.50;9.00;;;;;;;10.12;72.52;97585.58;106830;1277;22525;-80
2023/05/23 03:52:41;;;;;;;13.10;8.90;;;;;;;10.06;73.08;97585.07;106717;1277;22536;-83
2023/05/23 03:55:10;;;;;;;9.70;8.70;;;;;;;10.04;72.99;97582.73;106811;1277;22561;-81
2023/05/23 03:57:38;;;;;;;10.40;9.20;;;;;;;10.09;72.76;97587.15;106841;1277;22596;-79
2023/05/23 04:00:10;;;;;;;9.00;8.10;;;;;;;10.16;73.17;97585.60;106606;1277;22529;-82
2023/05/23 04:02:45;;;;;;;12.70;9.20;;;;;;;10.25;73.11;97582.92;106703;1277;22522;-82
2023/05/23 04:05:16;;;;;;;15.90;10.30;;;;;;;10.33;73.34;97581.91;106628;1277;23190;-80
2023/05/23 04:07:45;;;;;;;16.00;10.90;;;;;;;10.39;73.23;97583.65;106742;1277;22533;-87
2023/05/23 04:10:14;;;;;;;12.50;10.80;;;;;;;10.47;73.22;97577.49;106721;1276;22651;-83
2023/05/23 04:12:42;;;;;;;11.50;10.40;;;;;;;10.54;73.28;97580.39;106765;1277;23921;-83
2023/05/23 04:15:14;;;;;;;12.80;11.20;;;;;;;10.59;73.63;97576.98;106714;1277;22645;-85
2023/05/23 04:18:07;;;;;;;12.60;10.20;;;;;;;10.70;73.57;97573.91;106753;1277;22642;-82
2023/05/23 04:20:36;;;;;;;21.80;19.40;;;;;;;10.85;73.50;97579.84;106755;1277;22701;-80
2023/05/23 04:23:05;;;;;;;16.60;13.10;;;;;;;10.98;73.70;97577.70;106984;1277;22553;-81
2023/05/23 04:25:36;;;;;;;19.70;11.30;;;;;;;11.09;73.71;97576.77;106712;1278;22573;-80
2023/05/23 04:28:11;;;;;;;15.60;10.80;;;;;;;11.19;73.88;97575.32;106702;1277;22528;-84
2023/05/23 04:30:39;;;;;;;12.00;10.70;;;;;;;11.27;73.82;97572.95;106834;1277;22633;-83
2023/05/23 04:33:08;;;;;;;11.60;10.30;;;;;;;11.36;73.82;97575.34;106762;1256;25778;-82
2023/05/23 04:35:39;;;;;;;16.40;10.90;;;;;;;11.45;73.91;97572.61;106754;1264;22640;-80
2023/05/23 04:38:08;;;;;;;13.10;10.00;;;;;;;11.53;73.86;97570.21;106633;1277;22722;-82
2023/05/23 04:40:37;;;;;;;15.40;10.80;;;;;;;11.65;73.92;97567.59;106555;1277;22595;-81
2023/05/23 04:43:18;;;;;;;12.00;9.10;;;;;;;11.77;73.88;97568.95;106560;1277;22528;-80
2023/05/23 04:45:54;;;;;;;10.90;9.40;;;;;;;11.93;74.01;97567.62;106666;1276;22640;-79
2023/05/23 04:48:33;;;;;;;14.20;9.80;;;;;;;12.09;73.99;97562.37;106656;1276;22564;-80
2023/05/23 04:51:06;;;;;;;15.40;9.40;;;;;;;12.25;74.17;97566.70;106836;1277;25329;-79
2023/05/23 04:53:39;;;;;;;13.80;9.80;;;;;;;12.41;74.05;97562.44;106732;1277;22583;-79
2023/05/23 04:56:10;;;;;;;14.00;9.90;;;;;;;12.55;74.01;97562.78;106676;1277;22528;-85
2023/05/23 04:58:43;;;;;;;15.60;10.70;;;;;;;12.69;74.07;97562.70;106794;1277;22525;-90
2023/05/23 05:01:12;;;;;;;14.70;9.20;;;;;;;12.85;73.94;97560.34;106627;1277;23273;-86
2023/05/23 05:03:41;;;;;;;13.30;10.00;;;;;;;13.05;74.28;97562.21;106875;1277;22609;-86
2023/05/23 05:06:09;;;;;;;16.30;9.80;;;;;;;13.32;74.15;97560.14;106855;1277;22519;-82
2023/05/23 05:08:39;;;;;;;12.70;9.70;;;;;;;13.61;74.05;97562.11;106703;1277;24224;-82
2023/05/23 05:11:10;;;;;;;13.20;9.00;;;;;;;13.77;73.50;97564.04;106771;1277;22524;-82
2023/05/23 05:13:38;;;;;;;10.50;9.00;;;;;;;13.88;73.69;97559.96;106765;1277;25583;-81
2023/05/23 05:16:06;;;;;;;13.90;8.60;;;;;;;13.99;73.36;97558.61;106609;1277;24234;-82
2023/05/23 05:18:35;;;;;;;12.10;8.80;;;;;;;14.11;73.24;97554.73;106792;1277;25370;-82
2023/05/23 05:21:03;;;;;;;11.00;8.40;;;;;;;14.20;72.89;97559.86;106815;1277;24421;-82
2023/05/23 05:23:32;;;;;;;12.70;8.80;;;;;;;14.27;72.60;97557.13;106748;1277;25696;-82
2023/05/23 05:26:00;;;;;;;10.90;8.90;;;;;;;14.38;72.37;97550.85;106754;1277;25526;-82
2023/05/23 05:28:28;;;;;;;11.80;8.30;;;;;;;14.48;72.06;97555.63;106706;1277;24193;-82
2023/05/23 05:30:57;;;;;;;15.00;8.90;;;;;;;14.56;71.89;97551.53;106777;1277;22536;-82
2023/05/23 05:33:27;;;;;;;13.10;8.80;;;;;;;14.65;71.34;97553.46;106683;1277;24265;-82
2023/05/23 05:36:13;;;;;;;11.10;8.90;;;;;;;14.72;71.05;97547.45;106770;1277;22538;-83
2023/05/23 05:38:41;;;;;;;11.00;8.10;;;;;;;14.77;70.68;97547.44;106810;1277;22778;-82
2023/05/23 05:41:10;;;;;;;13.80;8.40;;;;;;;14.83;70.37;97546.80;106952;1276;22565;-81
2023/05/23 05:43:49;;;;;;;11.50;8.30;;;;;;;14.90;70.14;97549.92;107257;1277;22730;-82
2023/05/23 05:46:18;;;;;;;11.90;8.50;;;;;;;15.01;70.22;97555.77;106834;1271;22537;-83
2023/05/23 05:48:46;;;;;;;10.10;8.00;;;;;;;15.11;69.35;97556.89;106796;1277;22532;-83
2023/05/23 05:51:17;;;;;;;13.40;8.70;;;;;;;15.19;69.35;97558.59;106705;1277;272203;-82
2023/05/23 05:53:45;;;;;;;9.60;8.60;;;;;;;15.29;69.37;97554.95;106807;1277;24203;-82
2023/05/23 05:56:14;;;;;;;16.30;8.20;;;;;;;15.42;69.10;97551.63;107066;1277;22730;-82
2023/05/23 05:58:42;;;;;;;10.70;9.00;;;;;;;15.50;68.78;97549.58;106836;1277;23899;-82
2023/05/23 06:01:13;;;;;;;11.00;8.00;;;;;;;15.58;68.42;97555.10;106807;1277;22627;-82
2023/05/23 06:03:42;;;;;;;12.20;8.80;;;;;;;15.62;67.75;97549.55;106972;1254;22529;-81
2023/05/23 06:06:10;;;;;;;13.80;8.10;;;;;;;15.66;67.36;97548.83;107118;1277;26531;-81
2023/05/23 06:08:41;;;;;;;18.20;8.10;;;;;;;15.74;67.62;97547.47;106831;1277;25312;-82
2023/05/23 06:11:12;;;;;;;13.30;8.20;;;;;;;15.86;67.58;97544.58;106883;1277;25264;-82
2023/05/23 06:13:40;;;;;;;15.10;7.50;;;;;;;15.96;67.24;97538.84;106789;1277;24432;-82
2023/05/23 06:16:08;;;;;;;13.90;7.90;;;;;;;16.05;66.98;97538.72;106677;1259;22647;-82
2023/05/23 06:18:36;;;;;;;10.20;7.40;;;;;;;16.16;67.16;97538.94;106827;1276;22651;-81
2023/05/23 06:21:05;;;;;;;12.30;7.60;;;;;;;16.29;67.11;97535.61;106688;1277;24246;-84
2023/05/23 06:23:33;;;;;;;14.20;8.00;;;;;;;16.43;66.85;97535.00;106762;1277;22570;-83
2023/05/23 06:26:01;;;;;;;9.30;7.90;;;;;;;16.56;66.79;97536.05;106844;1277;22517;-82
2023/05/23 06:28:30;;;;;;;14.60;7.80;;;;;;;16.67;66.29;97530.27;106836;1277;25316;-81
2023/05/23 06:30:58;;;;;;;11.90;7.00;;;;;;;16.73;66.08;97527.66;106706;1277;25356;-83
2023/05/23 06:33:27;;;;;;;8.10;6.80;;;;;;;16.81;65.67;97521.20;106728;1277;25475;-82
2023/05/23 06:35:55;;;;;;;12.60;7.10;;;;;;;16.91;65.44;97520.16;106811;1277;22545;-82
2023/05/23 06:38:29;;;;;;;9.80;6.70;;;;;;;17.02;65.03;97521.12;106632;1277;25315;-81
2023/05/23 06:40:58;;;;;;;11.60;7.30;;;;;;;17.12;64.84;97522.07;106805;1277;24545;-82
2023/05/23 06:43:27;;;;;;;10.20;7.20;;;;;;;17.22;64.38;97523.48;106675;1277;24203;-83
2023/05/23 06:46:11;;;;;;;18.50;7.50;;;;;;;17.37;64.47;97525.56;106725;1277;24199;-81
2023/05/23 06:48:39;;;;;;;8.50;6.60;;;;;;;17.50;64.05;97529.61;106719;1277;22655;-82
2023/05/23 06:51:09;;;;;;;9.50;6.30;;;;;;;17.62;63.71;97526.69;106749;1277;22530;-82
2023/05/23 06:53:37;;;;;;;10.20;6.30;;;;;;;17.76;63.50;97526.18;106845;1277;25304;-82
2023/05/23 06:56:06;;;;;;;10.20;7.60;;;;;;;17.87;63.04;97521.71;106764;1277;22532;-82
2023/05/23 06:58:40;;;;;;;10.10;6.90;;;;;;;17.98;62.81;97518.44;106716;1277;22530;-82
2023/05/23 07:01:09;;;;;;;9.70;6.70;;;;;;;18.09;62.67;97517.58;106732;1276;22528;-82
2023/05/23 07:03:44;;;;;;;9.80;6.70;;;;;;;18.18;62.53;97515.19;106792;1277;22521;-82
2023/05/23 07:06:15;;;;;;;9.20;7.10;;;;;;;18.31;62.38;97513.81;106910;1277;25278;-82
2023/05/23 07:08:45;;;;;;;9.40;7.00;;;;;;;18.40;62.04;97512.67;106871;1277;23663;-81
2023/05/23 07:11:14;;;;;;;9.90;6.40;;;;;;;18.53;62.22;97513.87;106864;1277;22545;-82
2023/05/23 07:13:45;;;;;;;11.70;7.40;;;;;;;18.69;61.72;97510.43;106771;1276;22637;-82
2023/05/23 07:16:20;;;;;;;9.60;6.60;;;;;;;18.79;61.50;97516.17;106840;1277;22524;-82
2023/05/23 07:19:04;;;;;;;9.80;6.30;;;;;;;18.89;61.18;97515.58;106663;1277;24246;-82
2023/05/23 07:21:35;;;;;;;9.90;7.00;;;;;;;19.00;60.36;97513.84;106858;1277;22569;-82
2023/05/23 07:24:03;;;;;;;10.60;6.60;;;;;;;19.10;60.19;97511.04;106846;1277;22537;-82
2023/05/23 07:26:32;;;;;;;8.50;6.50;;;;;;;19.21;59.98;97506.63;106681;1277;22580;-82
2023/05/23 07:29:00;;;;;;;10.60;6.70;;;;;;;19.31;60.05;97506.24;106770;1277;24072;-82
2023/05/23 07:31:28;;;;;;;10.20;6.50;;;;;;;19.43;59.41;97503.53;106708;1277;22569;-81
2023/05/23 07:33:58;;;;;;;11.20;6.60;;;;;;;19.57;59.30;97503.52;106778;1277;22552;-82
2023/05/23 07:36:36;;;;;;;11.30;6.50;;;;;;;19.67;58.84;97499.32;106682;1277;22523;-82
2023/05/23 07:39:06;;;;;;;7.80;6.60;;;;;;;19.80;58.95;97504.89;106678;1277;23331;-82
2023/05/23 07:41:34;;;;;;;10.50;6.90;;;;;;;19.87;57.96;97505.31;106736;1276;22572;-82
2023/05/23 07:44:02;;;;;;;8.70;6.30;;;;;;;19.93;57.74;97501.34;106686;1277;25220;-82
2023/05/23 07:46:30;;;;;;;8.90;6.10;;;;;;;19.93;56.18;97501.80;106782;1277;22554;-82
2023/05/23 07:48:58;;;;;;;11.60;7.00;;;;;;;19.95;56.53;97502.13;106723;1277;24284;-82
2023/05/23 07:51:26;;;;;;;11.00;9.00;;;;;;;19.98;56.41;97498.75;106628;1277;23902;-82
2023/05/23 07:53:55;;;;;;;12.00;7.40;;;;;;;20.05;56.50;97503.45;106616;1277;25532;-82
2023/05/23 07:56:23;;;;;;;10.30;7.00;;;;;;;20.19;56.72;97503.32;106656;1254;22772;-81
2023/05/23 07:58:51;;;;;;;14.20;7.10;;;;;;;20.34;56.70;97499.59;106749;1277;24879;-83
2023/05/23 08:01:20;;;;;;;13.90;8.00;;;;;;;20.47;55.92;97500.37;106836;1277;25322;-81
2023/05/23 08:04:07;;;;;;;9.40;6.70;;;;;;;20.62;55.79;97494.23;106630;1277;23032;-81
2023/05/23 08:06:40;;;;;;;14.30;7.40;;;;;;;20.74;55.40;97495.85;106772;1277;22637;-81
2023/05/23 08:09:32;;;;;;;11.30;6.70;;;;;;;20.87;55.40;97494.27;106792;1277;22540;-81
2023/05/23 08:12:00;;;;;;;14.00;6.60;;;;;;;21.01;54.55;97495.48;106835;1277;26704;-82
2023/05/23 08:14:29;;;;;;;11.80;6.40;;;;;;;21.05;54.46;97492.77;106928;1277;25211;-82
2023/05/23 08:17:30;;;;;;;9.70;6.00;;;;;;;21.20;54.39;97488.13;106839;1277;22644;-82
2023/05/23 08:20:00;;;;;;;12.90;6.80;;;;;;;21.29;54.01;97490.71;106720;1277;24162;-82
2023/05/23 08:22:28;;;;;;;9.20;6.30;;;;;;;21.39;53.38;97493.95;106928;1276;22602;-83
2023/05/23 08:24:57;;;;;;;11.50;6.40;;;;;;;21.49;53.13;97493.63;106703;1277;22816;-82
2023/05/23 08:27:26;;;;;;;9.00;6.10;;;;;;;21.61;53.06;97495.76;106888;1277;22528;-82
2023/05/23 08:29:57;;;;;;;9.40;5.90;;;;;;;21.76;52.61;97497.82;106948;1277;22548;-82
2023/05/23 08:32:25;;;;;;;10.80;5.90;;;;;;;21.85;51.82;97494.50;106617;1277;22551;-83
2023/05/23 08:34:54;;;;;;;8.30;5.80;;;;;;;21.94;52.26;97490.70;106864;1277;22546;-82
2023/05/23 08:37:22;;;;;;;9.90;5.90;;;;;;;22.04;51.45;97494.60;106847;1275;22951;-82
2023/05/23 08:39:51;;;;;;;8.70;6.20;;;;;;;22.13;51.48;97491.98;106802;1277;22535;-82
2023/05/23 08:42:30;;;;;;;8.60;5.60;;;;;;;22.23;51.63;97492.68;106749;1277;22527;-82
2023/05/23 08:44:58;;;;;;;9.00;6.00;;;;;;;22.35;50.60;97491.09;106837;1277;24230;-80
2023/05/23 08:47:28;;;;;;;8.80;7.30;;;;;;;22.46;50.83;97488.54;106747;1275;22524;-82
2023/05/23 08:50:03;;;;;;;11.00;6.40;;;;;;;22.65;50.18;97488.45;106801;1277;22528;-82
2023/05/23 08:52:33;;;;;;;8.80;5.40;;;;;;;22.77;49.95;97491.05;106759;1277;22557;-82
2023/05/23 08:55:01;;;;;;;9.00;5.90;;;;;;;22.89;49.69;97490.21;106726;1277;22676;-81
2023/05/23 08:57:30;;;;;;;8.30;5.30;;;;;;;22.96;49.00;97488.29;106888;1277;22524;-81
2023/05/23 09:00:09;;;;;;;11.20;5.90;;;;;;;23.04;48.43;97484.05;106813;1277;22727;-84
2023/05/23 09:02:39;;;;;;;10.10;4.90;;;;;;;23.07;48.06;97486.19;106952;1271;23466;-81
2023/05/23 09:05:17;;;;;;;7.80;5.50;;;;;;;23.13;48.29;97484.30;106959;1277;24388;-82
2023/05/23 09:07:47;;;;;;;7.00;5.50;;;;;;;23.25;47.74;97480.69;107086;1277;25035;-81
2023/05/23 09:10:20;;;;;;;8.40;6.40;;;;;;;23.31;47.23;97472.76;106734;1277;25429;-82
2023/05/23 09:12:49;;;;;;;10.10;5.40;;;;;;;23.30;47.30;97469.70;106850;1276;25403;-83
2023/05/23 09:15:17;;;;;;;10.50;6.30;;;;;;;23.30;46.81;97464.52;106892;1277;22529;-81
2023/05/23 09:17:45;;;;;;;8.00;5.50;;;;;;;23.33;46.88;97466.71;106734;1277;22800;-81
2023/05/23 09:20:16;;;;;;;10.60;6.00;;;;;;;23.41;45.79;97464.35;106829;1277;25935;-81
2023/05/23 09:22:50;;;;;;;12.60;4.80;;;;;;;23.50;46.09;97466.93;106930;1277;23126;-81
2023/05/23 09:25:18;;;;;;;11.80;5.50;;;;;;;23.62;46.15;97470.61;106725;1277;22794;-81
2023/05/23 09:27:46;;;;;;;10.50;4.90;;;;;;;23.77;45.54;97463.55;106701;1277;22533;-81
2023/05/23 09:30:17;;;;;;;8.90;5.10;;;;;;;23.92;46.07;97465.16;106806;1277;22590;-81
2023/05/23 09:33:01;;;;;;;10.80;5.20;;;;;;;24.04;45.40;97466.14;106727;1277;22663;-80
2023/05/23 09:35:33;;;;;;;8.90;4.40;;;;;;;24.13;45.41;97467.20;106800;1277;23892;-81
2023/05/23 09:38:01;;;;;;;7.80;4.50;;;;;;;24.27;45.06;97467.54;106884;1277;22599;-81
2023/05/23 09:40:31;;;;;;;11.90;4.50;;;;;;;24.36;45.05;97467.35;106841;1277;22535;-81
2023/05/23 09:43:04;;;;;;;13.50;4.80;;;;;;;24.44;43.92;97471.35;106789;1277;22531;-81
2023/05/23 09:45:32;;;;;;;7.40;5.00;;;;;;;24.52;44.41;97467.85;106890;1277;25266;-82
2023/05/23 09:48:01;;;;;;;5.90;4.60;;;;;;;24.61;44.22;97462.13;106771;1277;22544;-82
2023/05/23 09:50:32;;;;;;;7.20;4.80;;;;;;;24.73;43.59;97460.17;106905;1277;22808;-82
2023/05/23 09:53:01;;;;;;;7.10;4.60;;;;;;;24.86;43.92;97464.34;106766;1277;24267;-82
2023/05/23 09:55:29;;;;;;;9.80;4.80;;;;;;;24.99;43.35;97460.71;106871;1277;22659;-81
2023/05/23 09:58:00;;;;;;;7.90;4.30;;;;;;;25.01;42.65;97460.23;106746;1277;22646;-82
2023/05/23 10:00:28;;;;;;;9.70;5.10;;;;;;;25.05;42.99;97456.48;106771;1277;23199;-81
2023/05/23 10:03:11;;;;;;;7.10;3.90;;;;;;;25.06;41.82;97449.77;106815;1277;22527;-81
2023/05/23 10:05:50;;;;;;;10.50;4.70;;;;;;;25.06;41.55;97446.55;106886;1277;25405;-81
2023/05/23 10:08:26;;;;;;;11.80;4.70;;;;;;;25.06;40.58;97445.61;106805;1277;22527;-81
2023/05/23 10:10:57;;;;;;;7.90;4.10;;;;;;;25.13;40.65;97443.76;106908;1277;22577;-82
2023/05/23 10:13:27;;;;;;;8.40;4.10;;;;;;;25.22;40.96;97446.31;106812;1277;25403;-81
2023/05/23 10:16:16;;;;;;;12.40;4.10;;;;;;;25.35;40.87;97448.33;106894;1277;22531;-82
2023/05/23 10:18:47;;;;;;;8.00;4.60;;;;;;;25.41;39.36;97447.55;106864;1270;24284;-82
2023/05/23 10:21:23;;;;;;;9.90;5.10;;;;;;;25.40;39.95;97450.48;106857;1277;22550;-82
2023/05/23 10:23:52;;;;;;;8.70;4.40;;;;;;;25.44;39.13;97446.56;106673;1277;22788;-82
2023/05/23 10:26:20;;;;;;;10.80;4.40;;;;;;;25.39;39.34;97445.75;106846;1277;22625;-82
2023/05/23 10:28:50;;;;;;;7.60;4.60;;;;;;;25.49;39.72;97442.81;106888;1277;22527;-81
2023/05/23 10:31:19;;;;;;;5.70;4.00;;;;;;;25.66;39.73;97440.67;106852;1277;22788;-82
2023/05/23 10:33:58;;;;;;;8.20;4.20;;;;;;;25.74;39.50;97437.30;106892;1277;25259;-83
2023/05/23 10:36:36;;;;;;;11.00;4.50;;;;;;;25.83;39.56;97439.27;106885;1277;22534;-81
2023/05/23 10:39:15;;;;;;;9.30;4.20;;;;;;;25.99;39.82;97439.48;106889;1277;22637;-81
2023/05/23 10:41:57;;;;;;;7.20;4.00;;;;;;;26.18;39.57;97439.48;106859;1277;22538;-81
2023/05/23 10:44:30;;;;;;;10.10;4.60;;;;;;;26.35;38.89;97438.81;106850;1277;25684;-83
2023/05/23 10:47:03;;;;;;;6.60;4.10;;;;;;;26.42;38.34;97440.69;106844;1277;22551;-81
2023/05/23 10:49:46;;;;;;;5.80;3.80;;;;;;;26.50;38.06;97438.31;106869;1277;22645;-82
2023/05/23 10:52:16;;;;;;;9.90;4.40;;;;;;;26.52;37.67;97433.63;106806;1277;25491;-82
2023/05/23 10:54:50;;;;;;;8.50;4.10;;;;;;;26.61;37.83;97433.60;106759;1277;22779;-82
2023/05/23 10:57:20;;;;;;;8.40;4.60;;;;;;;26.78;37.41;97432.79;106801;1277;22654;-82
2023/05/23 10:59:50;;;;;;;11.00;4.50;;;;;;;26.88;37.25;97430.82;106820;1277;25365;-81
2023/05/23 11:02:25;;;;;;;7.90;4.30;;;;;;;26.90;36.64;97432.20;106914;1277;24063;-81
2023/05/23 11:05:27;;;;;;;7.60;4.40;;;;;;;26.95;37.06;97421.95;106754;1277;22884;-81
2023/05/23 11:08:10;;;;;;;9.10;4.50;;;;;;;26.92;35.78;97415.04;106761;1277;25258;-82
2023/05/23 11:10:53;;;;;;;7.60;4.50;;;;;;;26.76;34.59;97410.01;106835;1277;24066;-80
2023/05/23 11:13:22;;;;;;;8.80;6.70;;;;;;;26.49;33.78;97404.05;106908;1273;24176;-82
2023/05/23 11:15:50;;;;;;;8.20;4.20;;;;;;;26.39;34.97;97401.11;106958;1277;22681;-82
2023/05/23 11:18:23;;;;;;;9.40;4.70;;;;;;;26.60;35.54;97397.36;106793;1277;23935;-81
2023/05/23 11:20:53;;;;;;;7.20;4.30;;;;;;;26.89;35.85;97396.29;106740;1277;21741;-81
2023/05/23 11:23:23;;;;;;;7.50;4.20;;;;;;;27.10;35.17;97390.17;106875;1277;22530;-81
2023/05/23 11:25:52;;;;;;;6.00;4.00;;;;;;;27.27;35.24;97387.61;106917;1277;22670;-82
2023/05/23 11:28:20;;;;;;;8.90;4.20;;;;;;;27.44;35.55;97389.77;106886;1277;22613;-82
2023/05/23 11:30:49;;;;;;;10.80;4.80;;;;;;;27.54;35.89;97385.39;106790;1277;25353;-82
2023/05/23 11:33:19;;;;;;;7.50;4.30;;;;;;;27.62;35.11;97379.61;106747;1277;25472;-81
2023/05/23 11:35:50;;;;;;;9.90;4.40;;;;;;;27.52;34.15;97370.47;106869;1270;25545;-81
2023/05/23 11:38:18;;;;;;;8.80;4.60;;;;;;;27.55;35.22;97372.64;106816;1277;25588;-81